Time;durP1;ratioP1;P1;durP2;ratioP2;P2;SDS_P1;SDS_P2;PMS_P1;PMS_P2;Temp;Humidity;BMP_temperature;BMP_pressure;BME280_temperature;BME280_humidity;BME280_pressure;Samples;Min_cycle;Max_cycle;Signal;HPM_P1;HPM_P2
2023/07/24 00:02:33;;;;;;;0.10;0.10;;;;;;;18.88;100.00;98252.06;5053923;28;20235;-51
2023/07/24 00:05:22;;;;;;;0.10;0.10;;;;;;;18.74;100.00;98255.50;5053834;28;20207;-51
2023/07/24 00:08:08;;;;;;;0.10;0.10;;;;;;;18.70;100.00;98258.69;5053849;28;20300;-51
2023/07/24 00:10:55;;;;;;;0.10;0.10;;;;;;;18.64;100.00;98254.81;5052506;28;20219;-51
2023/07/24 00:13:42;;;;;;;0.10;0.10;;;;;;;18.48;100.00;98255.69;5052977;28;20324;-51
2023/07/24 00:16:29;;;;;;;0.10;0.10;;;;;;;18.52;100.00;98248.13;5053767;28;20778;-51
2023/07/24 00:19:17;;;;;;;0.10;0.10;;;;;;;18.60;100.00;98248.09;5053628;28;20675;-51
2023/07/24 00:22:06;;;;;;;0.10;0.10;;;;;;;18.52;100.00;98264.22;5053346;28;20806;-51
2023/07/24 00:24:53;;;;;;;0.10;0.10;;;;;;;18.49;100.00;98265.41;5053471;28;20201;-52
2023/07/24 00:27:39;;;;;;;0.10;0.10;;;;;;;18.39;100.00;98261.22;5053443;28;20311;-51
2023/07/24 00:30:26;;;;;;;0.10;0.10;;;;;;;18.49;100.00;98256.53;5052510;28;20199;-51
2023/07/24 00:33:13;;;;;;;0.10;0.10;;;;;;;18.37;100.00;98257.88;5052367;28;20347;-51
2023/07/24 00:36:00;;;;;;;0.10;0.10;;;;;;;18.33;100.00;98252.00;5052203;28;20294;-51
2023/07/24 00:38:49;;;;;;;0.10;0.10;;;;;;;18.35;100.00;98254.53;5053276;28;20231;-51
2023/07/24 00:41:35;;;;;;;0.10;0.10;;;;;;;18.25;100.00;98254.72;5051834;28;20326;-51
2023/07/24 00:44:22;;;;;;;0.10;0.10;;;;;;;18.28;100.00;98255.22;5052170;28;20674;-51
2023/07/24 00:47:09;;;;;;;0.10;0.10;;;;;;;18.30;100.00;98258.56;5052058;28;20235;-51
2023/07/24 00:49:57;;;;;;;0.10;0.10;;;;;;;18.34;100.00;98260.91;5053044;28;20190;-51
2023/07/24 00:52:44;;;;;;;0.10;0.10;;;;;;;18.38;100.00;98249.66;5053123;28;20770;-51
2023/07/24 00:55:32;;;;;;;0.10;0.10;;;;;;;18.42;100.00;98245.63;5051761;28;20297;-52
2023/07/24 00:58:20;;;;;;;0.10;0.10;;;;;;;18.33;100.00;98252.00;5052908;28;20239;-51
2023/07/24 01:01:07;;;;;;;0.10;0.10;;;;;;;18.33;100.00;98237.75;5052859;28;20340;-51
2023/07/24 01:03:57;;;;;;;0.10;0.10;;;;;;;18.29;100.00;98246.16;5051947;28;20288;-52
2023/07/24 01:06:44;;;;;;;0.10;0.10;;;;;;;18.16;100.00;98248.53;5051881;28;20829;-51
2023/07/24 01:09:31;;;;;;;0.10;0.10;;;;;;;18.22;100.00;98245.16;5052801;28;20200;-51
2023/07/24 01:12:30;;;;;;;0.10;0.10;;;;;;;18.29;100.00;98238.13;5051521;28;20187;-51
2023/07/24 01:15:24;;;;;;;0.10;0.10;;;;;;;18.23;100.00;98233.41;5052740;28;20199;-51
2023/07/24 01:18:14;;;;;;;0.10;0.10;;;;;;;18.14;100.00;98231.75;5052535;28;20188;-51
2023/07/24 01:21:02;;;;;;;0.10;0.10;;;;;;;18.26;100.00;98219.69;5051696;28;20223;-51
2023/07/24 01:23:59;;;;;;;0.10;0.10;;;;;;;18.21;100.00;98215.84;5052756;28;20231;-51
2023/07/24 01:26:47;;;;;;;0.10;0.10;;;;;;;18.20;100.00;98223.03;5054621;28;20196;-51
2023/07/24 01:29:34;;;;;;;0.10;0.10;;;;;;;18.22;100.00;98217.50;5055771;28;20295;-51
2023/07/24 01:32:21;;;;;;;0.10;0.10;;;;;;;18.17;100.00;98220.72;5056753;28;20675;-51
2023/07/24 01:35:08;;;;;;;0.10;0.10;;;;;;;18.12;100.00;98222.22;5056803;28;20204;-51
2023/07/24 01:37:57;;;;;;;0.10;0.10;;;;;;;18.07;100.00;98216.53;5056540;28;20384;-51
2023/07/24 01:40:44;;;;;;;0.10;0.10;;;;;;;18.11;100.00;98216.00;5055317;28;20196;-51
2023/07/24 01:43:33;;;;;;;0.10;0.10;;;;;;;18.15;100.00;98208.50;5056638;28;20256;-51
2023/07/24 01:46:19;;;;;;;0.10;0.10;;;;;;;18.24;100.00;98210.16;5055338;28;20319;-51
2023/07/24 01:49:07;;;;;;;0.10;0.10;;;;;;;18.18;100.00;98205.47;5056449;28;20270;-51
2023/07/24 01:51:53;;;;;;;0.10;0.10;;;;;;;18.17;100.00;98206.47;5056273;28;20184;-51
2023/07/24 01:54:40;;;;;;;0.10;0.10;;;;;;;18.18;100.00;98205.47;5055896;28;20213;-51
2023/07/24 01:57:27;;;;;;;0.10;0.10;;;;;;;18.12;100.00;98198.94;5054695;28;20227;-51
2023/07/24 02:00:16;;;;;;;0.10;0.10;;;;;;;18.28;100.00;98193.56;5055171;28;20196;-51
2023/07/24 02:03:03;;;;;;;0.10;0.10;;;;;;;18.25;100.00;98180.50;5054875;28;20709;-52
2023/07/24 02:05:51;;;;;;;0.10;0.10;;;;;;;18.28;100.00;98179.31;5054976;28;20191;-52
2023/07/24 02:08:38;;;;;;;0.10;0.10;;;;;;;18.28;100.00;98177.47;5056114;28;20208;-51
2023/07/24 02:11:25;;;;;;;0.10;0.10;;;;;;;18.34;100.00;98167.06;5054774;28;20687;-50
2023/07/24 02:14:13;;;;;;;0.10;0.10;;;;;;;18.28;100.00;98156.03;5054951;28;20200;-51
2023/07/24 02:17:02;;;;;;;0.10;0.10;;;;;;;18.33;100.00;98151.97;5054891;28;20200;-51
2023/07/24 02:19:49;;;;;;;0.10;0.10;;;;;;;18.24;100.00;98159.22;5040400;28;20204;-51
2023/07/24 02:22:36;;;;;;;0.10;0.10;;;;;;;18.05;100.00;98178.34;5055494;28;20215;-51
2023/07/24 02:25:25;;;;;;;0.10;0.10;;;;;;;17.97;100.00;98158.59;5053477;28;20278;-51
2023/07/24 02:28:12;;;;;;;0.10;0.10;;;;;;;17.97;100.00;98155.91;5055792;28;20255;-51
2023/07/24 02:31:00;;;;;;;0.10;0.10;;;;;;;17.97;100.00;98149.72;5055624;28;20697;-51
2023/07/24 02:33:49;;;;;;;0.10;0.10;;;;;;;18.06;100.00;98153.22;5055620;28;20188;-51
2023/07/24 02:36:36;;;;;;;0.10;0.10;;;;;;;18.10;100.00;98147.34;5055016;28;20243;-51
2023/07/24 02:39:23;;;;;;;0.10;0.10;;;;;;;18.08;100.00;98154.72;5054507;28;20200;-51
2023/07/24 02:42:10;;;;;;;0.10;0.10;;;;;;;18.12;100.00;98147.16;5052974;28;20220;-51
2023/07/24 02:44:56;;;;;;;0.10;0.10;;;;;;;18.03;100.00;98149.03;5054406;28;20188;-51
2023/07/24 02:47:43;;;;;;;0.10;0.10;;;;;;;18.08;100.00;98143.16;5055209;28;20683;-51
2023/07/24 02:50:33;;;;;;;0.10;0.10;;;;;;;18.03;100.00;98149.03;5055417;28;20266;-51
2023/07/24 02:53:19;;;;;;;0.10;0.10;;;;;;;18.02;100.00;98152.72;5055189;28;20263;-51
2023/07/24 02:56:06;;;;;;;0.10;0.10;;;;;;;18.05;100.00;98147.03;5053609;28;20239;-52
2023/07/24 02:58:54;;;;;;;0.10;0.10;;;;;;;18.05;100.00;98143.50;5054332;28;20258;-51
2023/07/24 03:01:41;;;;;;;0.10;0.10;;;;;;;18.01;100.00;98146.53;5055100;28;20196;-51
2023/07/24 03:04:28;;;;;;;0.10;0.10;;;;;;;17.98;100.00;98141.50;5054895;28;20686;-51
2023/07/24 03:07:16;;;;;;;0.10;0.10;;;;;;;17.93;100.00;98148.38;5054931;28;20299;-51
2023/07/24 03:10:03;;;;;;;0.10;0.10;;;;;;;17.91;100.00;98145.88;5054483;28;20717;-51
2023/07/24 03:12:50;;;;;;;0.10;0.10;;;;;;;17.87;100.00;98141.03;5054683;28;20220;-51
2023/07/24 03:15:37;;;;;;;0.10;0.10;;;;;;;17.87;100.00;98157.94;5053959;28;20195;-51
2023/07/24 03:18:25;;;;;;;0.10;0.10;;;;;;;17.93;100.00;98156.41;5054708;28;20195;-51
2023/07/24 03:21:12;;;;;;;0.10;0.10;;;;;;;17.92;100.00;98160.94;5054527;28;20275;-52
2023/07/24 03:24:00;;;;;;;0.10;0.10;;;;;;;17.97;100.00;98153.25;5054563;28;20219;-51
2023/07/24 03:26:47;;;;;;;0.10;0.10;;;;;;;17.94;100.00;98144.69;5052463;28;20314;-52
2023/07/24 03:29:34;;;;;;;0.10;0.10;;;;;;;17.95;100.00;98143.69;5053451;28;20223;-52
2023/07/24 03:32:21;;;;;;;0.10;0.10;;;;;;;17.99;100.00;98151.22;5054585;28;20196;-51
2023/07/24 03:35:09;;;;;;;0.10;0.10;;;;;;;18.02;100.00;98147.34;5054515;28;20188;-51
2023/07/24 03:37:56;;;;;;;0.10;0.10;;;;;;;18.04;100.00;98137.28;5053332;28;20204;-51
2023/07/24 03:40:44;;;;;;;0.10;0.10;;;;;;;18.12;100.00;98134.59;5053116;28;20264;-51
2023/07/24 03:43:31;;;;;;;0.10;0.10;;;;;;;18.09;100.00;98115.38;5054184;28;20246;-51
2023/07/24 03:46:18;;;;;;;0.10;0.10;;;;;;;18.18;100.00;98109.81;5054112;28;20295;-51
2023/07/24 03:49:05;;;;;;;0.10;0.10;;;;;;;18.16;100.00;98098.44;5054020;28;20204;-51
2023/07/24 03:51:52;;;;;;;0.10;0.10;;;;;;;18.29;100.00;98090.66;5054071;28;20200;-51
2023/07/24 03:54:39;;;;;;;0.10;0.10;;;;;;;18.24;100.00;98089.53;5053938;28;20239;-50
2023/07/24 03:57:27;;;;;;;0.10;0.10;;;;;;;18.18;100.00;98085.69;5052630;28;20232;-51
2023/07/24 04:00:15;;;;;;;0.10;0.10;;;;;;;18.16;100.00;98087.72;5053936;28;20204;-51
2023/07/24 04:03:02;;;;;;;0.10;0.10;;;;;;;18.10;100.00;98085.72;5053404;28;20703;-51
2023/07/24 04:05:48;;;;;;;0.10;0.10;;;;;;;17.96;100.00;98086.44;5053711;28;20203;-51
2023/07/24 04:08:35;;;;;;;0.10;0.10;;;;;;;17.89;100.00;98080.06;5053700;28;20196;-51
2023/07/24 04:11:22;;;;;;;0.10;0.10;;;;;;;17.81;100.00;98088.97;5052105;28;20200;-51
2023/07/24 04:14:10;;;;;;;0.10;0.10;;;;;;;17.86;100.00;98078.59;5053716;28;20188;-51
2023/07/24 04:16:57;;;;;;;0.10;0.10;;;;;;;17.85;100.00;98084.91;5053524;28;20204;-51
2023/07/24 04:19:44;;;;;;;0.10;0.10;;;;;;;17.89;100.00;98090.78;5053533;28;20674;-51
2023/07/24 04:22:31;;;;;;;0.10;0.10;;;;;;;18.02;100.00;98091.09;5053440;28;20674;-51
2023/07/24 04:25:18;;;;;;;0.10;0.10;;;;;;;18.10;100.00;98095.59;5052287;28;20722;-51
2023/07/24 04:28:05;;;;;;;0.10;0.10;;;;;;;18.02;100.00;98091.09;5053392;28;20188;-51
2023/07/24 04:30:53;;;;;;;0.10;0.10;;;;;;;18.00;100.00;98083.22;5052939;28;20267;-52
2023/07/24 04:33:40;;;;;;;0.10;0.10;;;;;;;18.08;100.00;98070.81;5053158;28;20199;-51
2023/07/24 04:36:27;;;;;;;0.10;0.10;;;;;;;18.20;100.00;98064.06;5053272;28;20192;-51
2023/07/24 04:39:14;;;;;;;0.10;0.10;;;;;;;18.36;100.00;98065.84;5053189;28;20192;-51
2023/07/24 04:42:01;;;;;;;0.10;0.10;;;;;;;18.46;100.00;98058.44;5051904;28;20670;-51
2023/07/24 04:44:49;;;;;;;0.10;0.10;;;;;;;18.53;100.00;98060.25;5052823;28;20223;-50
2023/07/24 04:47:38;;;;;;;0.10;0.10;;;;;;;18.68;100.00;98040.75;5053035;28;20200;-51
2023/07/24 04:50:25;;;;;;;0.10;0.10;;;;;;;18.74;100.00;98056.97;5053000;28;20641;-50
2023/07/24 04:53:12;;;;;;;0.10;0.10;;;;;;;18.90;100.00;98047.97;5053060;28;20706;-50
2023/07/24 04:55:59;;;;;;;0.10;0.10;;;;;;;18.85;100.00;98039.63;5051561;28;20291;-51
2023/07/24 04:58:45;;;;;;;0.10;0.10;;;;;;;18.96;100.00;98049.13;5052946;28;20220;-51
2023/07/24 05:01:33;;;;;;;0.10;0.10;;;;;;;19.04;100.00;98046.38;5052357;28;20200;-50
2023/07/24 05:04:21;;;;;;;0.10;0.10;;;;;;;19.03;100.00;98044.72;5052611;28;20263;-51
2023/07/24 05:07:08;;;;;;;0.10;0.10;;;;;;;19.00;100.00;98040.50;5052825;28;20235;-51
2023/07/24 05:09:55;;;;;;;0.10;0.10;;;;;;;19.01;100.00;98046.72;5052937;28;20207;-51
2023/07/24 05:12:43;;;;;;;0.10;0.10;;;;;;;19.03;100.00;98042.03;5052646;28;20199;-51
2023/07/24 05:15:29;;;;;;;0.10;0.10;;;;;;;19.04;100.00;98051.75;5052898;28;20674;-50
2023/07/24 05:18:16;;;;;;;0.10;0.10;;;;;;;19.06;100.00;98053.22;5052782;28;20212;-50
2023/07/24 05:21:05;;;;;;;0.10;0.10;;;;;;;19.09;100.00;98066.28;5052660;28;20263;-51
2023/07/24 05:23:52;;;;;;;0.10;0.10;;;;;;;19.14;100.00;98061.22;5052477;28;20216;-50
2023/07/24 05:26:39;;;;;;;0.10;0.10;;;;;;;19.13;100.00;98064.91;5051509;28;20286;-51
2023/07/24 05:29:26;;;;;;;0.10;0.10;;;;;;;19.25;100.00;98061.81;5052624;28;20196;-50
2023/07/24 05:32:12;;;;;;;0.10;0.10;;;;;;;19.22;100.00;98059.50;5052768;28;20192;-50
2023/07/24 05:34:59;;;;;;;0.10;0.10;;;;;;;19.26;100.00;98069.69;5052578;28;20192;-51
2023/07/24 05:37:48;;;;;;;0.10;0.10;;;;;;;19.38;100.00;98068.22;5051516;28;20315;-51
2023/07/24 05:40:34;;;;;;;0.10;0.10;;;;;;;19.39;100.00;98075.25;5051232;28;20690;-50
2023/07/24 05:43:21;;;;;;;0.10;0.10;;;;;;;19.38;100.00;98078.13;5052494;28;20211;-51
2023/07/24 05:46:08;;;;;;;0.10;0.10;;;;;;;19.45;100.00;98079.09;5052462;28;20195;-51
2023/07/24 05:48:56;;;;;;;0.10;0.10;;;;;;;19.34;100.00;98082.22;5052507;28;20188;-51
2023/07/24 05:51:43;;;;;;;0.10;0.10;;;;;;;19.33;100.00;98077.84;5052481;28;20331;-51
2023/07/24 05:54:31;;;;;;;0.10;0.10;;;;;;;19.26;100.00;98072.38;5051418;28;20290;-51
2023/07/24 05:57:18;;;;;;;0.10;0.10;;;;;;;19.35;100.00;98062.41;5050838;28;20231;-51
2023/07/24 06:00:06;;;;;;;0.10;0.10;;;;;;;19.45;100.00;98061.13;5052439;28;20250;-51
2023/07/24 06:03:01;;;;;;;0.10;0.10;;;;;;;19.59;100.00;98058.69;5052363;28;20210;-51
2023/07/24 06:05:51;;;;;;;0.10;0.10;;;;;;;19.63;100.00;98052.78;5052143;28;20268;-50
2023/07/24 06:08:38;;;;;;;0.10;0.10;;;;;;;19.72;100.00;98042.78;5052321;28;20240;-51
2023/07/24 06:11:27;;;;;;;0.10;0.10;;;;;;;19.88;100.00;98048.00;5050593;28;20196;-51
2023/07/24 06:14:14;;;;;;;0.10;0.10;;;;;;;20.09;100.00;98046.41;5055845;28;20192;-51
2023/07/24 06:17:01;;;;;;;0.10;0.10;;;;;;;20.24;100.00;98042.69;5055889;28;20192;-51
2023/07/24 06:19:48;;;;;;;0.10;0.10;;;;;;;20.33;100.00;98048.78;5056264;28;20200;-51
2023/07/24 06:22:34;;;;;;;0.10;0.10;;;;;;;20.15;100.00;98037.59;5055635;28;20183;-50
2023/07/24 06:25:22;;;;;;;0.00;0.00;;;;;;;20.20;100.00;98048.63;5054299;28;20299;-51
2023/07/24 06:28:10;;;;;;;0.10;0.10;;;;;;;20.41;100.00;98043.31;5055783;28;20276;-50
2023/07/24 06:30:57;;;;;;;0.10;0.10;;;;;;;20.56;100.00;98049.53;5055440;28;20191;-51
2023/07/24 06:33:44;;;;;;;0.10;0.10;;;;;;;20.48;100.00;98040.75;5055574;28;20315;-51
2023/07/24 06:36:31;;;;;;;0.10;0.10;;;;;;;20.44;100.00;98036.75;5055538;28;20200;-50
2023/07/24 06:39:17;;;;;;;0.10;0.10;;;;;;;20.47;100.00;98031.84;5055351;28;20284;-51
2023/07/24 06:42:05;;;;;;;0.10;0.10;;;;;;;20.61;100.00;98026.59;5054047;28;20259;-51
2023/07/24 06:44:53;;;;;;;0.10;0.10;;;;;;;20.70;100.00;98022.78;5055189;28;20685;-51
2023/07/24 06:47:40;;;;;;;0.10;0.10;;;;;;;20.78;100.00;98022.66;5055157;28;20192;-51
2023/07/24 06:50:27;;;;;;;0.10;0.10;;;;;;;20.84;100.00;98014.66;5055284;28;20200;-51
2023/07/24 06:53:14;;;;;;;0.10;0.10;;;;;;;21.00;100.00;98018.94;5055346;28;20192;-50
2023/07/24 06:56:01;;;;;;;0.10;0.10;;;;;;;21.08;100.00;98007.22;5053477;28;20247;-51
2023/07/24 06:58:48;;;;;;;0.10;0.10;;;;;;;21.24;100.00;98003.44;5055143;28;20200;-51
2023/07/24 07:01:37;;;;;;;0.10;0.10;;;;;;;21.45;100.00;98002.59;5055111;28;20192;-51
2023/07/24 07:04:24;;;;;;;0.00;0.00;;;;;;;21.81;100.00;98003.25;5054646;28;20231;-51
2023/07/24 07:07:11;;;;;;;0.10;0.10;;;;;;;21.94;100.00;98002.50;5054939;28;20195;-51
2023/07/24 07:09:58;;;;;;;0.10;0.10;;;;;;;21.95;100.00;97994.22;5054241;28;20196;-51
2023/07/24 07:12:45;;;;;;;0.08;0.08;;;;;;;21.86;100.00;97991.88;5054755;28;20229;-51
2023/07/24 07:15:32;;;;;;;0.10;0.10;;;;;;;21.76;100.00;97997.63;5054892;28;20189;-51
2023/07/24 07:18:20;;;;;;;0.10;0.10;;;;;;;21.64;100.00;97991.94;5054716;28;20197;-51
2023/07/24 07:21:07;;;;;;;0.10;0.10;;;;;;;21.50;100.00;98002.81;5054621;28;20231;-51
2023/07/24 07:23:54;;;;;;;0.10;0.10;;;;;;;21.35;100.00;97994.84;5054025;28;20195;-51
2023/07/24 07:26:41;;;;;;;0.08;0.08;;;;;;;21.35;100.00;97992.16;5053341;28;20204;-51
2023/07/24 07:29:31;;;;;;;0.10;0.10;;;;;;;21.40;100.00;98004.00;5054139;28;20256;-50
2023/07/24 07:32:18;;;;;;;0.10;0.10;;;;;;;21.24;100.00;98000.75;5054252;28;20255;-51
2023/07/24 07:35:07;;;;;;;0.10;0.10;;;;;;;21.11;100.00;98004.97;5054501;28;20268;-51
2023/07/24 07:37:54;;;;;;;0.10;0.10;;;;;;;21.03;100.00;98010.47;5054252;28;20299;-51
2023/07/24 07:40:41;;;;;;;0.00;0.00;;;;;;;21.04;100.00;97997.88;5053005;28;20200;-51
2023/07/24 07:43:28;;;;;;;0.10;0.10;;;;;;;20.89;100.00;98015.94;5054371;28;20200;-51
2023/07/24 07:46:15;;;;;;;0.10;0.10;;;;;;;20.95;100.00;98024.09;5052864;28;20224;-51
2023/07/24 07:49:02;;;;;;;0.10;0.10;;;;;;;21.00;100.00;98023.50;5054202;28;20200;-51
2023/07/24 07:51:50;;;;;;;0.10;0.10;;;;;;;21.00;100.00;98020.81;5054075;28;20307;-51
2023/07/24 07:54:37;;;;;;;0.10;0.10;;;;;;;21.14;100.00;98022.63;5054121;28;20191;-51
2023/07/24 07:57:25;;;;;;;0.10;0.10;;;;;;;21.23;100.00;98013.38;5053582;28;20236;-51
2023/07/24 08:00:12;;;;;;;0.10;0.10;;;;;;;21.32;100.00;98003.31;5053830;28;20200;-51
2023/07/24 08:02:59;;;;;;;0.10;0.10;;;;;;;21.30;100.00;98000.81;5054036;28;20247;-51
2023/07/24 08:05:46;;;;;;;0.10;0.10;;;;;;;21.32;100.00;98003.31;5053449;28;20323;-51
2023/07/24 08:08:35;;;;;;;0.10;0.10;;;;;;;21.42;100.00;98001.97;5053880;28;20234;-50
2023/07/24 08:11:21;;;;;;;0.10;0.10;;;;;;;21.51;100.00;97999.94;5052367;28;20197;-51
2023/07/24 08:14:08;;;;;;;0.10;0.10;;;;;;;21.76;100.00;97999.47;5053733;28;20196;-51
2023/07/24 08:16:55;;;;;;;0.10;0.10;;;;;;;21.84;100.00;97997.47;5053707;28;20188;-51
2023/07/24 08:19:42;;;;;;;0.10;0.10;;;;;;;21.95;100.00;97996.91;5053468;28;20282;-51
2023/07/24 08:22:29;;;;;;;0.10;0.10;;;;;;;22.18;100.00;97993.94;5053512;28;20269;-51
2023/07/24 08:25:18;;;;;;;0.10;0.10;;;;;;;22.53;100.00;97989.28;5051999;28;20238;-51
2023/07/24 08:28:05;;;;;;;0.10;0.10;;;;;;;22.86;100.00;97985.88;5053480;28;20192;-51
2023/07/24 08:31:01;;;;;;;0.10;0.10;;;;;;;23.23;100.00;97981.75;5053378;28;20219;-51
2023/07/24 08:33:54;;;;;;;0.10;0.10;;;;;;;23.37;100.00;97985.28;5053352;28;20259;-51
2023/07/24 08:36:41;;;;;;;0.10;0.10;;;;;;;23.27;100.00;97979.47;5052675;28;20191;-51
2023/07/24 08:39:28;;;;;;;0.00;0.00;;;;;;;23.38;100.00;97985.06;5053339;28;20196;-51
2023/07/24 08:42:16;;;;;;;0.10;0.10;;;;;;;23.68;100.00;97976.56;5051815;28;20204;-50
2023/07/24 08:45:04;;;;;;;0.10;0.10;;;;;;;23.74;100.00;97977.56;5053077;28;20215;-51
2023/07/24 08:47:52;;;;;;;0.10;0.10;;;;;;;24.15;100.00;97982.66;5053195;28;20211;-51
2023/07/24 08:50:39;;;;;;;0.00;0.00;;;;;;;24.47;100.00;97976.31;5053129;28;20200;-51
2023/07/24 08:53:26;;;;;;;0.00;0.00;;;;;;;24.69;100.00;97970.56;5053106;28;20192;-51
2023/07/24 08:56:14;;;;;;;0.00;0.00;;;;;;;24.70;100.00;97974.91;5051568;28;20262;-51
2023/07/24 08:59:02;;;;;;;0.10;0.10;;;;;;;24.84;100.00;97968.38;5052800;28;20212;-51
2023/07/24 09:01:49;;;;;;;0.10;0.10;;;;;;;24.60;98.78;97959.16;5053030;28;20196;-51
2023/07/24 09:04:36;;;;;;;0.10;0.10;;;;;;;24.09;100.00;97970.81;5052903;28;20199;-51
2023/07/24 09:07:23;;;;;;;0.10;0.10;;;;;;;23.85;100.00;97961.53;5052725;28;20778;-51
2023/07/24 09:10:10;;;;;;;0.00;0.00;;;;;;;23.86;100.00;97975.91;5051648;28;20770;-51
2023/07/24 09:12:57;;;;;;;0.03;0.03;;;;;;;24.03;100.00;97963.56;5052891;28;20196;-51
2023/07/24 09:15:46;;;;;;;0.00;0.00;;;;;;;24.01;100.00;97973.75;5052601;28;20216;-51
2023/07/24 09:18:41;;;;;;;0.00;0.00;;;;;;;23.99;100.00;97973.13;5052705;28;20255;-51
2023/07/24 09:21:29;;;;;;;0.10;0.10;;;;;;;24.12;100.00;97959.56;5052694;28;20196;-51
2023/07/24 09:24:16;;;;;;;0.10;0.10;;;;;;;24.39;100.00;97959.47;5052600;28;20200;-51
2023/07/24 09:27:06;;;;;;;0.10;0.10;;;;;;;24.52;97.52;97962.97;5051115;28;20342;-51
2023/07/24 09:29:53;;;;;;;0.10;0.10;;;;;;;24.68;94.57;97960.78;5052578;28;20271;-51
2023/07/24 09:32:42;;;;;;;0.00;0.00;;;;;;;25.35;91.06;97953.84;5052629;28;20216;-51
2023/07/24 09:35:29;;;;;;;0.00;0.00;;;;;;;25.45;87.05;97939.78;5052473;28;20188;-51
2023/07/24 09:38:16;;;;;;;0.10;0.10;;;;;;;25.33;85.02;97942.41;5052597;28;20315;-51
2023/07/24 09:41:03;;;;;;;0.00;0.00;;;;;;;25.24;87.49;97933.72;5051222;28;20195;-51
2023/07/24 09:43:58;;;;;;;0.00;0.00;;;;;;;25.10;89.84;97915.91;5052581;28;20208;-51
2023/07/24 09:46:46;;;;;;;0.00;0.00;;;;;;;25.00;91.55;97915.56;5053701;28;20220;-51
2023/07/24 09:49:54;;;;;;;0.00;0.00;;;;;;;25.44;89.61;97897.44;5056471;28;20191;-51
2023/07/24 09:52:42;;;;;;;0.10;0.10;;;;;;;25.76;86.89;97893.56;5056432;28;20192;-51
2023/07/24 09:55:34;;;;;;;0.00;0.00;;;;;;;25.79;84.56;97903.16;5054956;28;20236;-51
2023/07/24 09:58:22;;;;;;;0.10;0.10;;;;;;;25.71;84.58;97893.44;5056305;28;20191;-51
2023/07/24 10:01:10;;;;;;;0.10;0.10;;;;;;;25.75;83.35;97888.38;5056223;28;20191;-51
2023/07/24 10:04:00;;;;;;;0.10;0.10;;;;;;;26.11;79.02;97874.78;5055908;28;20196;-51
2023/07/24 10:06:49;;;;;;;0.00;0.00;;;;;;;26.51;78.39;97880.50;5056235;28;20675;-51
2023/07/24 10:09:37;;;;;;;0.00;0.00;;;;;;;26.81;74.96;97875.03;5056113;28;20199;-51
2023/07/24 10:12:27;;;;;;;0.10;0.10;;;;;;;26.73;74.38;97878.09;5056021;28;20196;-51
2023/07/24 10:15:15;;;;;;;0.10;0.10;;;;;;;26.93;74.95;97888.66;5055957;28;20196;-51
2023/07/24 10:18:04;;;;;;;0.10;0.10;;;;;;;27.05;77.04;97873.22;5055922;28;20195;-51
2023/07/24 10:21:02;;;;;;;0.00;0.00;;;;;;;26.66;77.22;97877.38;5055934;28;20201;-51
2023/07/24 10:35:43;;;;;;;0.00;0.00;;;;;;;25.65;86.15;97886.16;5131285;27;20542;-56
2023/07/24 10:38:35;;;;;;;0.00;0.00;;;;;;;25.88;85.81;97888.25;5131366;28;20190;-56
2023/07/24 10:41:36;;;;;;;0.00;0.00;;;;;;;25.65;85.86;97888.88;5129650;27;20308;-56
2023/07/24 10:44:31;;;;;;;0.03;0.03;;;;;;;25.61;83.62;97885.78;5131280;27;20208;-56
2023/07/24 10:47:20;;;;;;;0.05;0.05;;;;;;;25.75;83.96;97893.81;5131094;28;20213;-56
2023/07/24 10:50:08;;;;;;;0.00;0.00;;;;;;;25.76;81.65;97885.44;5131046;28;20194;-56
2023/07/24 10:52:57;;;;;;;0.05;0.05;;;;;;;26.18;80.68;97872.81;5131134;27;20288;-56
2023/07/24 10:55:45;;;;;;;0.10;0.10;;;;;;;26.32;82.16;97875.34;5129664;28;20185;-56
2023/07/24 10:58:32;;;;;;;0.00;0.00;;;;;;;25.61;84.81;97865.97;5131059;28;20540;-56
2023/07/24 11:01:19;;;;;;;0.10;0.10;;;;;;;25.58;88.49;97869.16;5130794;27;20287;-56
2023/07/24 11:04:06;;;;;;;0.00;0.00;;;;;;;24.79;93.17;97876.09;5130827;27;20197;-56
2023/07/24 11:06:54;;;;;;;0.03;0.03;;;;;;;24.77;95.02;97864.66;5130775;28;20190;-56
2023/07/24 11:09:43;;;;;;;0.10;0.10;;;;;;;24.59;95.95;97857.31;5130680;28;20210;-56
2023/07/24 11:12:31;;;;;;;0.08;0.08;;;;;;;24.56;98.28;97855.03;5130643;28;20213;-56
2023/07/24 11:15:26;;;;;;;0.00;0.00;;;;;;;24.70;96.70;97861.19;5130304;27;20217;-56
2023/07/24 11:18:13;;;;;;;0.00;0.00;;;;;;;24.60;97.38;97869.78;5130511;28;20197;-57
2023/07/24 11:21:00;;;;;;;0.10;0.10;;;;;;;24.51;97.41;97858.44;5130317;28;20195;-56
2023/07/24 11:23:51;;;;;;;0.00;0.00;;;;;;;24.68;96.87;97855.16;5130390;27;20311;-56
2023/07/24 11:26:39;;;;;;;0.00;0.00;;;;;;;24.67;96.70;97848.91;5129220;28;20309;-56
2023/07/24 11:29:28;;;;;;;0.05;0.05;;;;;;;25.13;92.46;97844.19;5130240;27;20205;-56
2023/07/24 11:32:18;;;;;;;0.03;0.03;;;;;;;25.69;88.80;97844.81;5130182;27;20232;-56
2023/07/24 11:35:06;;;;;;;0.10;0.10;;;;;;;26.31;82.67;97830.22;5129881;27;20279;-57
2023/07/24 11:37:54;;;;;;;0.08;0.08;;;;;;;26.76;78.62;97833.31;5130005;28;20261;-56
2023/07/24 11:40:43;;;;;;;0.00;0.00;;;;;;;26.84;77.09;97832.16;5128743;27;20263;-57
2023/07/24 11:43:31;;;;;;;0.00;0.00;;;;;;;26.79;77.34;97822.81;5130145;27;20194;-56
2023/07/24 11:46:25;;;;;;;0.10;0.10;;;;;;;26.55;78.43;97806.72;5119887;27;20198;-56
2023/07/24 11:49:15;;;;;;;0.05;0.05;;;;;;;26.68;79.76;97815.47;5116274;28;20248;-56
2023/07/24 11:52:04;;;;;;;0.00;0.00;;;;;;;26.64;78.35;97811.59;5116159;28;20186;-56
2023/07/24 11:55:00;;;;;;;0.00;0.00;;;;;;;26.77;77.23;97814.06;5115111;28;20206;-57
2023/07/24 11:57:58;;;;;;;0.10;0.10;;;;;;;26.62;74.90;97805.53;5116076;28;20198;-56
2023/07/24 12:00:46;;;;;;;0.10;0.10;;;;;;;26.32;74.02;97805.56;5115892;28;20197;-56
2023/07/24 12:03:33;;;;;;;0.00;0.00;;;;;;;26.07;80.28;97805.75;5115925;28;20198;-57
2023/07/24 12:06:20;;;;;;;0.00;0.00;;;;;;;26.04;78.67;97791.78;5116170;28;20193;-56
2023/07/24 12:09:07;;;;;;;0.05;0.05;;;;;;;26.85;73.67;97776.75;5115856;28;20205;-56
2023/07/24 12:11:59;;;;;;;0.00;0.00;;;;;;;27.91;68.00;97783.69;5114425;28;20194;-57
2023/07/24 12:14:46;;;;;;;0.10;0.10;;;;;;;27.62;65.54;97790.97;5115608;28;20222;-57
2023/07/24 12:17:34;;;;;;;0.08;0.08;;;;;;;27.28;67.24;97771.75;5115844;28;20324;-56
2023/07/24 12:20:21;;;;;;;0.10;0.10;;;;;;;27.37;67.13;97778.47;5115618;28;20202;-57
2023/07/24 12:23:08;;;;;;;0.00;0.00;;;;;;;26.64;70.41;97761.88;5115673;28;20201;-57
2023/07/24 12:25:55;;;;;;;0.10;0.10;;;;;;;26.80;69.77;97766.56;5113235;28;20190;-56
2023/07/24 12:28:42;;;;;;;0.00;0.00;;;;;;;27.01;68.24;97757.81;5115511;28;20194;-57
2023/07/24 12:31:29;;;;;;;0.00;0.00;;;;;;;28.87;56.38;97753.75;5115558;28;20205;-56
2023/07/24 12:34:18;;;;;;;0.00;0.00;;;;;;;30.18;49.02;97734.63;5115148;28;20327;-57
2023/07/24 12:37:05;;;;;;;0.00;0.00;;;;;;;31.73;43.23;97736.16;5114346;28;20194;-57
2023/07/24 12:39:52;;;;;;;0.08;0.08;;;;;;;31.87;42.63;97754.59;5114096;28;20310;-57
2023/07/24 12:42:39;;;;;;;0.00;0.00;;;;;;;32.31;41.27;97721.25;5115136;28;20328;-57
2023/07/24 12:45:26;;;;;;;0.00;0.00;;;;;;;33.52;37.87;97702.94;5112861;28;20318;-57
2023/07/24 12:48:13;;;;;;;0.00;0.00;;;;;;;33.24;38.66;97718.13;5113265;28;20198;-57
2023/07/24 12:51:01;;;;;;;0.00;0.00;;;;;;;33.79;37.72;97702.50;5113825;28;20224;-57
2023/07/24 12:53:48;;;;;;;0.00;0.00;;;;;;;32.27;38.93;97714.66;5113727;28;20252;-57
2023/07/24 12:56:50;;;;;;;0.00;0.00;;;;;;;32.49;40.49;97713.56;5111425;28;20181;-57
2023/07/24 12:59:37;;;;;;;0.00;0.00;;;;;;;31.53;41.83;97704.09;5113947;28;20198;-57
2023/07/24 13:02:24;;;;;;;0.00;0.00;;;;;;;30.49;44.94;97716.59;5114810;28;20205;-57
2023/07/24 13:05:11;;;;;;;0.05;0.05;;;;;;;28.95;50.68;97710.53;5114433;28;20252;-57
2023/07/24 13:07:59;;;;;;;0.00;0.00;;;;;;;27.80;56.87;97713.81;5114582;28;20193;-56
2023/07/24 13:10:46;;;;;;;0.00;0.00;;;;;;;27.25;60.88;97720.59;5113538;28;20189;-56
2023/07/24 13:13:33;;;;;;;0.00;0.00;;;;;;;27.01;63.64;97694.47;5114437;28;20205;-56
2023/07/24 13:16:20;;;;;;;0.10;0.10;;;;;;;26.90;65.80;97698.88;5114479;28;20336;-56